Mugan — 9HA2962 — position and weather

sailwx.info

Track history (hours):
 
Tides and Currents Weather Stations Pressure Air Temp Water Temp Dewpoint Dewpoint Depression Visibility Wind Speed Wind Dir Waves Ship Positions

Mugan

Last reported at 2014-Nov-20 11:29 UTC. Time now 2014-Nov-21 12:23 UTC.
Position N 44°29' E 037°37'.

Length 140 m; draft 3.3 m.

Type: Ship (hazmat cat A). MMSI: 256914000.

Date/timePositionNaut miles runAvg speedWind from/ knotsBaromVisibWave heightAir tempDewpointWater temp
2014-Nov-20 11:29N 44°29' E 037°37'1 1.3
2014-Nov-20 10:32N 44°28' E 037°38'1 1.3
2014-Nov-20 09:33N 44°28' E 037°40'1 1.3
2014-Nov-20 08:33N 44°28' E 037°42'1 1.2
2014-Nov-20 07:33N 44°28' E 037°44'1 1.1
2014-Nov-20 06:32N 44°28' E 037°45'5 4.7
2014-Nov-20 05:33N 44°31' E 037°40'3 2.8
2014-Nov-20 04:33N 44°32' E 037°36'1 1.1
2014-Nov-20 03:32N 44°31' E 037°37'1 1.1
2014-Nov-20 02:33N 44°30' E 037°38'1 1.1
2014-Nov-20 01:33N 44°30' E 037°40'1 1.1
2014-Nov-20 00:32N 44°29' E 037°41'1 0.9
2014-Nov-19 23:33N 44°29' E 037°42'1 0.9
2014-Nov-19 22:33N 44°28' E 037°43'1 0.8
2014-Nov-19 21:33N 44°28' E 037°45'3 3.0
2014-Nov-19 20:33N 44°31' E 037°45'3 2.7
2014-Nov-19 19:33N 44°34' E 037°43'1 0.5
2014-Nov-19 18:33N 44°33' E 037°43'1 0.8
2014-Nov-19 17:33N 44°32' E 037°43'1 1.0
2014-Nov-19 16:33N 44°31' E 037°44'1 1.2
2014-Nov-19 15:32N 44°30' E 037°44'1 1.4
2014-Nov-19 14:32N 44°29' E 037°44'1 1.4
2014-Nov-19 13:33N 44°28' E 037°45'5 5.3
2014-Nov-19 12:33N 44°33' E 037°43'1 0.6
2014-Nov-19 11:33N 44°32' E 037°44'2 1.5
2014-Nov-19 10:33N 44°31' E 037°44'2 1.6
2014-Nov-19 09:32N 44°29' E 037°45'1 1.2
2014-Nov-19 08:32N 44°30' E 037°44'4 3.9
2014-Nov-19 07:33N 44°33' E 037°41'2 1.6
2014-Nov-19 06:32N 44°32' E 037°42'2 1.6
2014-Nov-19 05:34N 44°31' E 037°43'1 1.3
2014-Nov-19 04:33N 44°30' E 037°44'1 1.3
2014-Nov-19 03:33N 44°29' E 037°46'4 4.3
2014-Nov-19 02:33N 44°32' E 037°42'1 0.9
2014-Nov-19 01:33N 44°31' E 037°43'1 0.9
2014-Nov-19 00:33N 44°31' E 037°44'1 0.8
2014-Nov-18 23:32N 44°30' E 037°44'1 0.9
2014-Nov-18 22:33N 44°29' E 037°45'1 0.9
2014-Nov-18 21:32N 44°29' E 037°46'4 4.2
2014-Nov-18 20:33N 44°32' E 037°43'1 0.7
2014-Nov-18 19:33N 44°32' E 037°43'1 0.9
2014-Nov-18 18:33N 44°31' E 037°44'1 1.0
2014-Nov-18 17:32N 44°30' E 037°44'1 1.0
2014-Nov-18 16:33N 44°29' E 037°45'1 0.9
2014-Nov-18 15:31N 44°29' E 037°46'6 5.8
2014-Nov-18 14:33N 44°33' E 037°41'1 1.2
2014-Nov-18 13:33N 44°32' E 037°42'1 0.9
2014-Nov-18 12:33N 44°31' E 037°42'39910.2
2014-Nov-16 21:18N 41°26' E 029°40'811.1
2014-Nov-16 20:33N 41°22' E 029°30'269 5.9
2014-Nov-14 23:03N 37°23' E 026°49'  
Track history (hours):
 
Tides and Currents Weather Stations Pressure Air Temp Water Temp Dewpoint Dewpoint Depression Visibility Wind Speed Wind Dir Waves Ship Positions

Mugan

Last reported at 2014-Nov-20 11:29 UTC. Time now 2014-Nov-21 12:23 UTC.
Position N 44°29' E 037°37'.

Length 140 m; draft 3.3 m.

Type: Ship (hazmat cat A). MMSI: 256914000.

Date/timePositionNaut miles runAvg speedWind from/ knotsBaromVisibWave heightAir tempDewpointWater temp
2014-Nov-20 11:29N 44°29' E 037°37'1 1.3
2014-Nov-20 10:32N 44°28' E 037°38'1 1.3
2014-Nov-20 09:33N 44°28' E 037°40'1 1.3
2014-Nov-20 08:33N 44°28' E 037°42'1 1.2
2014-Nov-20 07:33N 44°28' E 037°44'1 1.1
2014-Nov-20 06:32N 44°28' E 037°45'5 4.7
2014-Nov-20 05:33N 44°31' E 037°40'3 2.8
2014-Nov-20 04:33N 44°32' E 037°36'1 1.1
2014-Nov-20 03:32N 44°31' E 037°37'1 1.1
2014-Nov-20 02:33N 44°30' E 037°38'1 1.1
2014-Nov-20 01:33N 44°30' E 037°40'1 1.1
2014-Nov-20 00:32N 44°29' E 037°41'1 0.9
2014-Nov-19 23:33N 44°29' E 037°42'1 0.9
2014-Nov-19 22:33N 44°28' E 037°43'1 0.8
2014-Nov-19 21:33N 44°28' E 037°45'3 3.0
2014-Nov-19 20:33N 44°31' E 037°45'3 2.7
2014-Nov-19 19:33N 44°34' E 037°43'1 0.5
2014-Nov-19 18:33N 44°33' E 037°43'1 0.8
2014-Nov-19 17:33N 44°32' E 037°43'1 1.0
2014-Nov-19 16:33N 44°31' E 037°44'1 1.2
2014-Nov-19 15:32N 44°30' E 037°44'1 1.4
2014-Nov-19 14:32N 44°29' E 037°44'1 1.4
2014-Nov-19 13:33N 44°28' E 037°45'5 5.3
2014-Nov-19 12:33N 44°33' E 037°43'1 0.6
2014-Nov-19 11:33N 44°32' E 037°44'2 1.5
2014-Nov-19 10:33N 44°31' E 037°44'2 1.6
2014-Nov-19 09:32N 44°29' E 037°45'1 1.2
2014-Nov-19 08:32N 44°30' E 037°44'4 3.9
2014-Nov-19 07:33N 44°33' E 037°41'2 1.6
2014-Nov-19 06:32N 44°32' E 037°42'2 1.6
2014-Nov-19 05:34N 44°31' E 037°43'1 1.3
2014-Nov-19 04:33N 44°30' E 037°44'1 1.3
2014-Nov-19 03:33N 44°29' E 037°46'4 4.3
2014-Nov-19 02:33N 44°32' E 037°42'1 0.9
2014-Nov-19 01:33N 44°31' E 037°43'1 0.9
2014-Nov-19 00:33N 44°31' E 037°44'1 0.8
2014-Nov-18 23:32N 44°30' E 037°44'1 0.9
2014-Nov-18 22:33N 44°29' E 037°45'1 0.9
2014-Nov-18 21:32N 44°29' E 037°46'4 4.2
2014-Nov-18 20:33N 44°32' E 037°43'1 0.7
2014-Nov-18 19:33N 44°32' E 037°43'1 0.9
2014-Nov-18 18:33N 44°31' E 037°44'1 1.0
2014-Nov-18 17:32N 44°30' E 037°44'1 1.0
2014-Nov-18 16:33N 44°29' E 037°45'1 0.9
2014-Nov-18 15:31N 44°29' E 037°46'6 5.8
2014-Nov-18 14:33N 44°33' E 037°41'1 1.2
2014-Nov-18 13:33N 44°32' E 037°42'1 0.9
2014-Nov-18 12:33N 44°31' E 037°42'39910.2
2014-Nov-16 21:18N 41°26' E 029°40'811.1
2014-Nov-16 20:33N 41°22' E 029°30'269 5.9
2014-Nov-14 23:03N 37°23' E 026°49'  

Dump ship's entire track history